createdAt,value
2019-06-27T00:01:15.768Z,73.77
2019-06-27T00:03:45.176Z,73.73
2019-06-27T00:06:15.892Z,73.48
2019-06-27T00:08:45.453Z,73.16
2019-06-27T00:11:15.845Z,73.13
2019-06-27T00:13:45.413Z,73.41
2019-06-27T00:16:15.951Z,73.32
2019-06-27T00:18:45.607Z,73.71
2019-06-27T00:21:15.924Z,73.49
2019-06-27T00:23:45.495Z,72.89
2019-06-27T00:26:15.873Z,72.91
2019-06-27T00:28:45.672Z,72.62
2019-06-27T00:31:15.813Z,72.54
2019-06-27T00:33:45.197Z,73.04
2019-06-27T00:36:15.943Z,73.17
2019-06-27T00:38:45.535Z,73.00
2019-06-27T00:41:15.903Z,72.97
2019-06-27T00:43:45.471Z,72.97
2019-06-27T00:46:15.858Z,73.02
2019-06-27T00:48:45.514Z,72.36
2019-06-27T00:51:15.974Z,72.47
2019-06-27T00:53:45.546Z,73.75
2019-06-27T00:56:15.932Z,73.12
2019-06-27T00:58:45.497Z,73.28
2019-06-27T01:01:15.994Z,74.07
2019-06-27T01:03:45.673Z,74.08
2019-06-27T01:06:16.013Z,73.92
2019-06-27T01:08:46.576Z,73.86
2019-06-27T01:11:16.019Z,74.11
2019-06-27T01:13:45.521Z,73.96
2019-06-27T01:16:15.934Z,73.93
2019-06-27T01:18:45.586Z,74.24
2019-06-27T01:21:16.082Z,74.24
2019-06-27T01:23:45.620Z,74.39
2019-06-27T01:26:16.010Z,73.80
2019-06-27T01:28:45.567Z,73.90
2019-06-27T01:31:15.952Z,73.99
2019-06-27T01:33:45.319Z,74.25
2019-06-27T01:36:16.086Z,74.31
2019-06-27T01:38:45.645Z,74.04
2019-06-27T01:41:16.117Z,73.75
2019-06-27T01:43:45.595Z,74.04
2019-06-27T01:46:15.982Z,74.18
2019-06-27T01:48:45.637Z,74.00
2019-06-27T01:51:16.092Z,73.93
2019-06-27T01:53:45.663Z,74.11
2019-06-27T01:56:16.252Z,74.05
2019-06-27T01:58:45.618Z,73.50
2019-06-27T02:01:16.177Z,73.25
2019-06-27T02:03:45.768Z,73.71
2019-06-27T02:06:16.320Z,74.04
2019-06-27T02:08:45.745Z,73.96
2019-06-27T02:11:16.094Z,74.26
2019-06-27T02:13:45.648Z,73.63
2019-06-27T02:16:16.014Z,73.67
2019-06-27T02:18:45.402Z,73.72
2019-06-27T02:21:16.158Z,73.21
2019-06-27T02:23:45.785Z,73.55
2019-06-27T02:26:16.857Z,73.94
2019-06-27T02:28:46.271Z,73.89
2019-06-27T02:31:16.064Z,73.89
2019-06-27T02:33:45.763Z,74.01
2019-06-27T02:36:16.144Z,73.85
2019-06-27T02:38:45.819Z,73.85
2019-06-27T02:41:16.126Z,73.70
2019-06-27T02:43:45.814Z,73.72
2019-06-27T02:46:16.075Z,73.74
2019-06-27T02:48:46.561Z,73.26
2019-06-27T02:51:16.286Z,73.28
2019-06-27T02:53:45.847Z,74.03
2019-06-27T02:56:16.163Z,73.54
2019-06-27T02:58:45.765Z,73.25
2019-06-27T03:01:16.154Z,73.11
2019-06-27T03:03:45.550Z,73.31
2019-06-27T03:06:14.945Z,72.73
2019-06-27T03:08:44.313Z,72.74
2019-06-27T03:11:13.811Z,73.37
2019-06-27T03:13:43.175Z,72.61
2019-06-27T03:16:12.877Z,71.73
2019-06-27T03:18:42.358Z,72.19
2019-06-27T03:21:12.059Z,72.90
2019-06-27T03:23:41.472Z,72.71
2019-06-27T03:26:11.024Z,72.88
2019-06-27T03:28:51.585Z,73.83
2019-06-27T03:31:11.504Z,73.78
2019-06-27T03:33:41.648Z,73.58
2019-06-27T03:36:11.094Z,73.50
2019-06-27T03:38:40.530Z,73.09
2019-06-27T03:41:10.073Z,73.24
2019-06-27T03:43:39.438Z,73.60
2019-06-27T03:46:08.843Z,73.48
2019-06-27T03:48:38.255Z,73.79
2019-06-27T03:51:07.676Z,73.60
2019-06-27T03:53:37.097Z,73.38
2019-06-27T03:56:07.454Z,73.34
2019-06-27T03:58:37.053Z,73.52
2019-06-27T04:01:06.499Z,72.78
2019-06-27T04:03:36.181Z,72.96
2019-06-27T04:06:05.597Z,72.44
2019-06-27T04:08:35.172Z,72.61
2019-06-27T04:11:04.664Z,72.76
2019-06-27T04:13:34.154Z,72.80
2019-06-27T04:16:03.538Z,72.81
2019-06-27T04:18:33.346Z,73.07
2019-06-27T04:21:03.078Z,72.68
2019-06-27T04:23:32.446Z,71.77
2019-06-27T04:26:02.193Z,72.03
2019-06-27T04:28:31.856Z,70.94
2019-06-27T04:31:01.271Z,71.25
2019-06-27T04:33:30.699Z,71.57
2019-06-27T04:36:00.202Z,72.22
2019-06-27T04:38:29.629Z,72.15
2019-06-27T04:40:59.160Z,72.52
2019-06-27T04:43:28.582Z,71.88
2019-06-27T04:45:58.222Z,71.92
2019-06-27T04:48:27.742Z,71.21
2019-06-27T04:50:57.164Z,71.64
2019-06-27T04:53:26.627Z,71.35
2019-06-27T04:55:56.359Z,69.73
2019-06-27T04:58:25.802Z,69.36
2019-06-27T05:00:55.784Z,69.85
2019-06-27T05:03:25.519Z,70.57
2019-06-27T05:05:55.250Z,70.47
2019-06-27T05:08:24.739Z,70.19
2019-06-27T05:10:54.356Z,70.08
2019-06-27T05:13:23.765Z,71.25
2019-06-27T05:15:53.256Z,71.33
2019-06-27T05:18:22.684Z,69.80
2019-06-27T05:20:52.248Z,70.02
2019-06-27T05:23:21.929Z,70.49
2019-06-27T05:25:51.419Z,70.22
2019-06-27T05:28:20.832Z,69.27
2019-06-27T05:30:51.501Z,69.88
2019-06-27T05:33:22.047Z,68.96
2019-06-27T05:35:51.859Z,68.77
2019-06-27T05:38:21.556Z,68.62
2019-06-27T05:40:50.919Z,69.29
2019-06-27T05:43:20.625Z,69.08
2019-06-27T05:45:50.331Z,69.36
2019-06-27T05:48:19.725Z,67.63
2019-06-27T05:50:49.341Z,66.83
2019-06-27T05:53:18.719Z,66.42
2019-06-27T05:55:48.306Z,66.60
2019-06-27T05:58:18.019Z,67.31
2019-06-27T06:00:47.591Z,67.75
2019-06-27T06:03:17.420Z,68.36
2019-06-27T06:05:47.113Z,67.87
2019-06-27T06:08:16.761Z,67.96
2019-06-27T06:10:46.383Z,68.05
2019-06-27T06:13:16.671Z,68.29
2019-06-27T06:15:46.145Z,68.44
2019-06-27T06:18:16.776Z,68.73
2019-06-27T06:20:46.467Z,68.86
2019-06-27T06:23:16.737Z,68.76
2019-06-27T06:25:46.385Z,67.98
2019-06-27T06:28:16.724Z,67.37
2019-06-27T06:30:46.088Z,67.15
2019-06-27T06:33:16.855Z,67.44
2019-06-27T06:35:46.484Z,67.86
2019-06-27T06:38:16.757Z,67.23
2019-06-27T06:40:46.480Z,67.47
2019-06-27T06:43:16.783Z,66.59
2019-06-27T06:45:46.511Z,65.53
2019-06-27T06:48:16.878Z,64.43
2019-06-27T06:50:46.548Z,63.90
2019-06-27T06:53:16.829Z,64.24
2019-06-27T06:55:46.410Z,62.69
2019-06-27T06:58:16.781Z,62.93
2019-06-27T07:01:00.753Z,62.73
2019-06-27T07:03:18.516Z,63.32
2019-06-27T07:05:47.871Z,62.02
2019-06-27T07:08:17.588Z,61.59
2019-06-27T07:10:46.963Z,61.09
2019-06-27T07:13:16.898Z,60.93
2019-06-27T07:15:46.520Z,61.39
2019-06-27T07:18:16.944Z,60.11
2019-06-27T07:20:46.486Z,60.93
2019-06-27T07:23:16.869Z,61.60
2019-06-27T07:25:46.235Z,62.25
2019-06-27T07:28:15.676Z,62.49
2019-06-27T07:30:45.052Z,62.57
2019-06-27T07:33:14.745Z,62.57
2019-06-27T07:35:44.083Z,62.45
2019-06-27T07:38:13.777Z,61.56
2019-06-27T07:40:43.476Z,61.74
2019-06-27T07:43:12.861Z,62.37
2019-06-27T07:45:42.264Z,62.76
2019-06-27T07:48:11.630Z,61.15
2019-06-27T07:50:41.028Z,60.78
2019-06-27T07:53:10.628Z,60.41
2019-06-27T07:55:40.087Z,59.46
2019-06-27T07:58:09.608Z,57.71
2019-06-27T08:00:39.031Z,57.47
2019-06-27T08:03:08.633Z,56.72
2019-06-27T08:05:38.056Z,56.32
2019-06-27T08:08:07.672Z,56.07
2019-06-27T08:10:37.047Z,56.64
2019-06-27T08:13:06.639Z,55.77
2019-06-27T08:15:36.006Z,55.25
2019-06-27T08:18:05.729Z,54.83
2019-06-27T08:20:35.101Z,54.10
2019-06-27T08:23:04.651Z,54.03
2019-06-27T08:25:34.031Z,54.00
2019-06-27T08:28:03.453Z,53.69
2019-06-27T08:30:32.957Z,52.37
2019-06-27T08:33:02.665Z,52.37
2019-06-27T08:35:33.640Z,52.83
2019-06-27T08:38:03.131Z,51.98
2019-06-27T08:40:32.840Z,52.90
2019-06-27T08:43:02.215Z,53.66
2019-06-27T08:45:31.958Z,53.07
2019-06-27T08:48:01.360Z,51.82
2019-06-27T08:50:31.019Z,52.38
2019-06-27T08:53:01.594Z,51.29
2019-06-27T08:55:31.101Z,52.38
2019-06-27T09:00:35.863Z,52.38
2019-06-27T09:03:45.331Z,52.39
2019-06-27T09:06:14.783Z,51.47
2019-06-27T09:08:44.192Z,52.26
2019-06-27T09:11:14.013Z,51.13
2019-06-27T09:13:43.433Z,50.43
2019-06-27T09:16:12.891Z,50.50
2019-06-27T09:18:42.331Z,50.56
2019-06-27T09:21:11.762Z,50.86
2019-06-27T09:23:41.170Z,50.76
2019-06-27T09:26:10.801Z,50.63
2019-06-27T09:28:40.265Z,49.89
2019-06-27T09:31:09.824Z,50.08
2019-06-27T09:33:39.259Z,49.44
2019-06-27T09:36:08.969Z,48.67
2019-06-27T09:38:38.412Z,47.37
2019-06-27T09:41:07.824Z,47.71
2019-06-27T09:43:37.201Z,47.51
2019-06-27T09:46:06.913Z,46.62
2019-06-27T09:48:36.322Z,47.59
2019-06-27T09:51:05.905Z,46.86
2019-06-27T09:53:35.382Z,47.84
2019-06-27T09:56:05.058Z,46.83
2019-06-27T09:58:34.505Z,46.81
2019-06-27T10:01:06.133Z,47.42
2019-06-27T10:03:40.896Z,46.94
2019-06-27T10:06:10.308Z,46.58
2019-06-27T10:08:39.943Z,46.26
2019-06-27T10:11:09.349Z,46.21
2019-06-27T10:13:38.912Z,45.33
2019-06-27T10:16:08.309Z,46.27
2019-06-27T10:18:38.029Z,45.89
2019-06-27T10:21:07.423Z,45.94
2019-06-27T10:23:36.923Z,45.44
2019-06-27T10:26:06.282Z,45.55
2019-06-27T10:28:35.937Z,45.86
2019-06-27T10:31:05.321Z,44.32
2019-06-27T10:33:35.018Z,43.67
2019-06-27T10:36:04.471Z,44.82
2019-06-27T10:38:46.232Z,45.00
2019-06-27T10:41:17.260Z,44.97
2019-06-27T10:43:47.240Z,44.02
2019-06-27T10:46:17.335Z,44.05
2019-06-27T10:48:47.042Z,44.49
2019-06-27T10:51:16.430Z,43.85
2019-06-27T10:53:46.006Z,43.70
2019-06-27T10:56:15.391Z,43.93
2019-06-27T10:58:44.931Z,43.40
2019-06-27T11:01:14.342Z,42.75
2019-06-27T11:03:44.499Z,43.40
2019-06-27T11:06:14.421Z,42.79
2019-06-27T11:08:44.085Z,43.08
2019-06-27T11:11:13.656Z,43.42
2019-06-27T11:13:57.910Z,42.88
2019-06-27T11:16:33.534Z,42.72
2019-06-27T11:19:03.288Z,42.07
2019-06-27T11:21:32.970Z,42.04
2019-06-27T11:27:05.113Z,42.22
2019-06-27T11:29:34.491Z,42.78
2019-06-27T11:32:04.120Z,43.12
2019-06-27T11:34:35.206Z,43.72
2019-06-27T11:37:14.372Z,44.57
2019-06-27T11:39:43.723Z,45.44
2019-06-27T11:42:13.161Z,46.07
2019-06-27T11:44:42.766Z,45.00
2019-06-27T11:47:12.158Z,45.48
2019-06-27T11:49:41.752Z,44.97
2019-06-27T11:52:11.218Z,43.97
2019-06-27T11:54:40.595Z,44.10
2019-06-27T11:57:10.265Z,43.87
2019-06-27T11:59:39.629Z,43.44
2019-06-27T12:02:09.125Z,43.76
2019-06-27T12:04:38.534Z,44.15
2019-06-27T12:07:08.208Z,44.36
2019-06-27T12:09:37.585Z,43.85
2019-06-27T12:12:07.274Z,42.64
2019-06-27T12:14:36.631Z,43.59
2019-06-27T12:17:06.160Z,44.48
2019-06-27T12:19:35.576Z,43.70
2019-06-27T12:22:17.112Z,43.12
2019-06-27T12:24:46.531Z,43.06
2019-06-27T12:27:16.163Z,43.54
2019-06-27T12:29:45.517Z,42.63
2019-06-27T12:32:15.249Z,42.40
2019-06-27T12:34:44.614Z,42.33
2019-06-27T12:37:14.366Z,41.63
2019-06-27T12:39:56.105Z,41.96
2019-06-27T12:42:32.464Z,41.03
2019-06-27T12:45:02.341Z,41.94
2019-06-27T12:47:33.454Z,41.08
2019-06-27T12:50:03.322Z,41.83
2019-06-27T12:52:42.885Z,42.56
2019-06-27T12:55:12.291Z,42.46
2019-06-27T12:57:41.686Z,42.65
2019-06-27T13:03:45.413Z,41.68
2019-06-27T13:06:14.903Z,41.60
2019-06-27T13:08:44.266Z,41.80
2019-06-27T13:11:13.664Z,41.31
2019-06-27T13:13:43.323Z,40.46
2019-06-27T13:16:12.684Z,41.83
2019-06-27T13:18:42.340Z,41.71
2019-06-27T13:21:11.704Z,41.85
2019-06-27T13:23:42.701Z,41.87
2019-06-27T13:26:12.413Z,41.55
2019-06-27T13:28:41.812Z,42.09
2019-06-27T13:31:11.265Z,41.63
2019-06-27T13:33:40.642Z,42.32
2019-06-27T13:36:10.263Z,42.52
2019-06-27T13:38:39.649Z,42.82
2019-06-27T13:41:09.020Z,42.67
2019-06-27T13:43:38.446Z,42.85
2019-06-27T13:46:07.802Z,42.41
2019-06-27T13:48:37.688Z,43.28
2019-06-27T13:51:07.532Z,42.33
2019-06-27T13:53:36.912Z,42.42
2019-06-27T13:56:06.660Z,42.50
2019-06-27T13:58:36.075Z,41.90
2019-06-27T14:01:05.755Z,42.96
2019-06-27T14:03:48.705Z,42.83
2019-06-27T14:06:25.800Z,43.52
2019-06-27T14:08:55.351Z,43.40
2019-06-27T14:11:25.061Z,43.79
2019-06-27T14:13:54.504Z,44.00
2019-06-27T14:16:23.942Z,42.57
2019-06-27T14:18:53.475Z,43.48
2019-06-27T14:21:22.956Z,44.24
2019-06-27T14:23:52.349Z,43.93
2019-06-27T14:26:21.754Z,43.75
2019-06-27T14:28:51.402Z,42.84
2019-06-27T14:31:20.806Z,43.38
2019-06-27T14:39:35.010Z,44.47
2019-06-27T14:42:04.547Z,44.59
2019-06-27T14:44:33.922Z,44.21
2019-06-27T14:47:03.783Z,45.33
2019-06-27T14:49:33.674Z,44.77
2019-06-27T14:52:03.367Z,45.55
2019-06-27T14:54:32.758Z,45.15
2019-06-27T14:57:02.115Z,45.31
2019-06-27T14:59:31.782Z,46.50
2019-06-27T15:02:01.489Z,45.88
2019-06-27T15:04:30.917Z,45.66
2019-06-27T15:07:00.570Z,45.75
2019-06-27T15:09:29.926Z,45.71
2019-06-27T15:11:59.687Z,47.41
2019-06-27T15:14:29.047Z,47.99
2019-06-27T15:16:58.757Z,48.74
2019-06-27T15:19:28.133Z,48.36
2019-06-27T15:21:57.529Z,47.25
2019-06-27T15:24:28.826Z,46.68
2019-06-27T15:26:58.093Z,45.86
2019-06-27T15:29:27.772Z,46.57
2019-06-27T15:31:57.066Z,46.88
2019-06-27T15:34:26.750Z,46.48
2019-06-27T15:36:56.410Z,46.25
2019-06-27T15:39:37.199Z,45.65
2019-06-27T15:42:06.701Z,46.97
2019-06-27T15:44:36.116Z,45.51
2019-06-27T15:47:05.518Z,46.75
2019-06-27T15:52:29.668Z,47.39
2019-06-27T15:54:59.360Z,47.03
2019-06-27T15:57:30.791Z,47.10
2019-06-27T16:00:00.222Z,46.57
2019-06-27T16:02:29.887Z,46.81
2019-06-27T16:04:59.605Z,46.69
2019-06-27T16:07:29.091Z,47.69
2019-06-27T16:10:00.162Z,47.89
2019-06-27T16:12:29.863Z,47.57
2019-06-27T16:14:59.220Z,47.68
2019-06-27T16:17:28.943Z,48.49
2019-06-27T16:19:58.589Z,48.59
2019-06-27T16:22:27.957Z,49.28
2019-06-27T16:24:57.424Z,49.14
2019-06-27T16:27:26.834Z,48.85
2019-06-27T16:29:56.228Z,49.26
2019-06-27T16:32:25.975Z,50.09
2019-06-27T16:34:55.682Z,50.28
2019-06-27T16:37:25.039Z,49.68
2019-06-27T16:39:54.712Z,49.21
2019-06-27T16:42:24.070Z,49.26
2019-06-27T16:44:53.862Z,49.69
2019-06-27T16:47:23.194Z,49.41
2019-06-27T16:49:52.986Z,49.34
2019-06-27T16:52:22.645Z,49.91
2019-06-27T16:54:52.063Z,50.57
2019-06-27T16:57:21.925Z,50.87
2019-06-27T16:59:51.461Z,50.72
2019-06-27T17:02:21.068Z,50.83
2019-06-27T17:04:50.813Z,51.19
2019-06-27T17:07:20.229Z,51.25
2019-06-27T17:09:49.738Z,51.59
2019-06-27T17:12:21.067Z,51.71
2019-06-27T17:14:50.790Z,52.04
2019-06-27T17:17:20.156Z,51.21
2019-06-27T17:19:49.814Z,51.50
2019-06-27T17:22:19.802Z,51.88
2019-06-27T17:24:49.300Z,52.31
2019-06-27T17:27:18.955Z,52.84
2019-06-27T17:29:48.326Z,52.76
2019-06-27T17:32:18.120Z,52.76
2019-06-27T17:34:47.786Z,52.98
2019-06-27T17:37:18.877Z,53.55
2019-06-27T17:39:58.837Z,53.22
2019-06-27T17:42:28.223Z,52.55
2019-06-27T17:44:57.938Z,52.58
2019-06-27T17:47:27.360Z,52.85
2019-06-27T17:49:56.827Z,52.93
2019-06-27T17:52:26.272Z,53.35
2019-06-27T17:54:55.801Z,53.24
2019-06-27T17:57:25.742Z,53.40
2019-06-27T18:00:14.460Z,53.68
2019-06-27T18:02:43.959Z,53.67
2019-06-27T18:05:13.561Z,54.05
2019-06-27T18:07:42.966Z,54.04
2019-06-27T18:13:46.899Z,54.41
2019-06-27T18:16:16.315Z,55.01
2019-06-27T18:18:45.914Z,55.26
2019-06-27T18:21:15.318Z,55.21
2019-06-27T18:23:45.228Z,55.93
2019-06-27T18:26:15.110Z,56.21
2019-06-27T18:28:44.797Z,56.96
2019-06-27T18:31:14.211Z,57.62
2019-06-27T18:33:43.947Z,57.89
2019-06-27T18:36:13.345Z,58.31
2019-06-27T18:38:42.943Z,58.46
2019-06-27T18:41:12.989Z,58.94
2019-06-27T18:44:15.089Z,59.15
2019-06-27T18:46:44.646Z,59.68
2019-06-27T18:49:14.247Z,59.85
2019-06-27T18:51:44.218Z,60.00
2019-06-27T18:54:13.863Z,59.73
2019-06-27T18:56:43.252Z,59.77
2019-06-27T18:59:12.934Z,60.03
2019-06-27T19:01:42.639Z,60.53
2019-06-27T19:04:24.660Z,60.86
2019-06-27T19:06:54.048Z,61.10
2019-06-27T19:09:23.402Z,60.73
2019-06-27T19:14:47.198Z,61.23
2019-06-27T19:17:16.583Z,61.62
2019-06-27T19:22:54.053Z,62.17
2019-06-27T19:25:25.862Z,62.43
2019-06-27T19:27:55.282Z,62.64
2019-06-27T19:30:24.934Z,63.01
2019-06-27T19:32:54.350Z,63.35
2019-06-27T19:35:24.254Z,63.66
2019-06-27T19:38:02.144Z,63.79
2019-06-27T19:40:34.626Z,64.04
2019-06-27T19:43:04.114Z,64.20
2019-06-27T19:45:33.525Z,64.35
2019-06-27T19:48:03.226Z,64.53
2019-06-27T19:50:32.587Z,64.81
2019-06-27T19:53:02.169Z,65.17
2019-06-27T19:55:31.522Z,65.51
2019-06-27T19:58:01.464Z,65.59
2019-06-27T20:03:33.294Z,65.99
2019-06-27T20:06:02.692Z,65.94
2019-06-27T20:08:32.396Z,66.06
2019-06-27T20:11:01.796Z,65.67
2019-06-27T20:13:43.707Z,65.82
2019-06-27T20:16:13.328Z,65.82
2019-06-27T20:18:42.739Z,65.45
2019-06-27T20:21:12.372Z,65.33
2019-06-27T20:23:41.961Z,65.41
2019-06-27T20:26:11.480Z,65.45
2019-06-27T20:28:40.839Z,65.37
2019-06-27T20:31:10.626Z,65.39
2019-06-27T20:33:40.399Z,65.64
2019-06-27T20:36:09.823Z,65.85
2019-06-27T20:38:39.654Z,65.90
2019-06-27T20:41:09.272Z,65.93
2019-06-27T20:43:38.935Z,66.06
2019-06-27T20:46:08.796Z,66.52
2019-06-27T20:48:38.758Z,66.86
2019-06-27T20:51:08.577Z,66.64
2019-06-27T20:53:38.169Z,67.04
2019-06-27T20:56:08.004Z,67.05
2019-06-27T20:58:37.999Z,67.37
2019-06-27T21:01:07.783Z,67.92
2019-06-27T21:03:37.916Z,68.10
2019-06-27T21:06:07.531Z,68.10
2019-06-27T21:08:50.217Z,67.99
2019-06-27T21:11:27.334Z,68.07
2019-06-27T21:13:56.860Z,68.19
2019-06-27T21:16:26.268Z,68.37
2019-06-27T21:18:55.781Z,68.52
2019-06-27T21:21:25.143Z,68.56
2019-06-27T21:23:54.806Z,68.40
2019-06-27T21:26:24.475Z,68.25
2019-06-27T21:28:54.058Z,68.35
2019-06-27T21:31:23.530Z,68.27
2019-06-27T21:33:52.908Z,68.09
2019-06-27T21:36:22.929Z,68.62
2019-06-27T21:39:06.630Z,68.71
2019-06-27T21:41:23.504Z,68.61
2019-06-27T21:43:52.984Z,68.42
2019-06-27T21:46:22.392Z,68.48
2019-06-27T21:48:51.936Z,68.54
2019-06-27T21:51:21.321Z,68.75
2019-06-27T21:53:51.023Z,68.88
2019-06-27T21:56:20.740Z,68.63
2019-06-27T21:58:50.140Z,68.80
2019-06-27T22:01:19.631Z,69.16
2019-06-27T22:03:49.130Z,69.18
2019-06-27T22:06:19.527Z,68.93
2019-06-27T22:08:49.157Z,69.19
2019-06-27T22:11:19.466Z,69.13
2019-06-27T22:13:49.137Z,69.23
2019-06-27T22:16:19.492Z,69.28
2019-06-27T22:18:49.160Z,69.43
2019-06-27T22:21:19.637Z,69.52
2019-06-27T22:23:49.161Z,69.62
2019-06-27T22:26:19.578Z,69.41
2019-06-27T22:28:49.284Z,69.68
2019-06-27T22:31:19.635Z,69.66
2019-06-27T22:33:50.240Z,69.78
2019-06-27T22:36:19.848Z,69.82
2019-06-27T22:39:06.981Z,69.60
2019-06-27T22:41:54.570Z,69.62
2019-06-27T22:44:42.060Z,69.55
2019-06-27T22:47:29.156Z,69.47
2019-06-27T22:49:58.038Z,69.37
2019-06-27T22:52:45.576Z,69.63
2019-06-27T22:55:19.246Z,69.46
2019-06-27T22:57:48.663Z,69.38
2019-06-27T23:00:30.533Z,69.49
2019-06-27T23:03:00.525Z,69.74
2019-06-27T23:05:29.902Z,69.95
2019-06-27T23:07:59.628Z,70.18
2019-06-27T23:10:29.537Z,70.14
2019-06-27T23:12:58.925Z,70.34
2019-06-27T23:15:28.584Z,70.20
2019-06-27T23:17:58.007Z,70.35
2019-06-27T23:20:27.661Z,70.32
2019-06-27T23:22:57.082Z,70.40
2019-06-27T23:25:26.535Z,70.75
2019-06-27T23:27:55.954Z,70.86
2019-06-27T23:30:25.917Z,70.77
2019-06-27T23:32:55.339Z,70.75
2019-06-27T23:35:24.859Z,71.08
2019-06-27T23:37:54.571Z,71.23
2019-06-27T23:40:23.931Z,71.35
2019-06-27T23:42:53.720Z,71.33
2019-06-27T23:45:23.384Z,71.32
2019-06-27T23:47:52.837Z,71.55
2019-06-27T23:50:22.233Z,71.75
2019-06-27T23:52:53.630Z,71.99
2019-06-27T23:55:24.003Z,72.08
2019-06-27T23:57:53.664Z,72.03
